Time;durP1;ratioP1;P1;durP2;ratioP2;P2;SDS_P1;SDS_P2;PMS_P1;PMS_P2;Temp;Humidity;BMP_temperature;BMP_pressure;BME280_temperature;BME280_humidity;BME280_pressure;Samples;Min_cycle;Max_cycle;Signal;HPM_P1;HPM_P2
2021/07/15 00:02:24;;;;;;;0.30;0.30;;;;;;;;;;5074372;28;20025;-52
2021/07/15 00:04:50;;;;;;;1.65;0.30;;;;;;;;;;5074112;28;20021;-51
2021/07/15 00:07:16;;;;;;;0.30;0.30;;;;;;;;;;5075017;28;20028;-51
2021/07/15 00:09:43;;;;;;;0.30;0.30;;;;;;;;;;5074111;28;20027;-52
2021/07/15 00:12:11;;;;;;;0.30;0.30;;;;;;;;;;5073707;28;20035;-51
2021/07/15 00:14:37;;;;;;;0.30;0.30;;;;;;;;;;5074827;28;20155;-51
2021/07/15 00:17:04;;;;;;;0.20;0.20;;;;;;;;;;5073991;28;20036;-51
2021/07/15 00:19:30;;;;;;;2.55;0.45;;;;;;;;;;5074562;28;20111;-52
2021/07/15 00:21:57;;;;;;;0.30;0.30;;;;;;;;;;5073615;28;20336;-51
2021/07/15 00:24:24;;;;;;;4.28;0.30;;;;;;;;;;5074445;28;20032;-51
2021/07/15 00:26:50;;;;;;;0.30;0.30;;;;;;;;;;5073599;28;20028;-51
2021/07/15 00:29:16;;;;;;;0.40;0.40;;;;;;;;;;5074534;28;20359;-51
2021/07/15 00:31:42;;;;;;;0.30;0.30;;;;;;;;;;5073865;28;20044;-52
2021/07/15 00:34:08;;;;;;;0.30;0.30;;;;;;;;;;5074322;28;20461;-51
2021/07/15 00:36:35;;;;;;;0.30;0.30;;;;;;;;;;5071820;28;20036;-51
2021/07/15 00:39:01;;;;;;;0.30;0.30;;;;;;;;;;5073603;28;20356;-51
2021/07/15 00:41:27;;;;;;;1.10;0.40;;;;;;;;;;5073408;28;20029;-52
2021/07/15 00:43:53;;;;;;;0.32;0.32;;;;;;;;;;5074001;28;20016;-51
2021/07/15 00:46:19;;;;;;;0.30;0.30;;;;;;;;;;5073743;28;20463;-52
2021/07/15 00:48:45;;;;;;;0.30;0.30;;;;;;;;;;5074240;28;20016;-52
2021/07/15 00:51:11;;;;;;;0.30;0.30;;;;;;;;;;5073140;28;20031;-51
2021/07/15 00:53:37;;;;;;;0.32;0.32;;;;;;;;;;5073841;28;20050;-51
2021/07/15 00:56:03;;;;;;;0.30;0.30;;;;;;;;;;5073387;28;20029;-52
2021/07/15 00:58:30;;;;;;;0.73;0.38;;;;;;;;;;5074032;28;20044;-51
2021/07/15 01:00:56;;;;;;;0.25;0.25;;;;;;;;;;5072273;28;20029;-51
2021/07/15 01:03:23;;;;;;;0.32;0.32;;;;;;;;;;5073817;28;20104;-52
2021/07/15 01:05:51;;;;;;;0.90;0.52;;;;;;;;;;5073404;28;20082;-51
2021/07/15 01:08:17;;;;;;;0.20;0.20;;;;;;;;;;5070819;28;20029;-51
2021/07/15 01:10:45;;;;;;;0.30;0.30;;;;;;;;;;5071658;28;20020;-51
2021/07/15 01:13:20;;;;;;;0.30;0.30;;;;;;;;;;5073321;28;20024;-52
2021/07/15 01:15:55;;;;;;;0.30;0.30;;;;;;;;;;5073035;28;20028;-51
2021/07/15 01:18:24;;;;;;;0.28;0.28;;;;;;;;;;5073624;28;20028;-51
2021/07/15 01:20:56;;;;;;;0.30;0.30;;;;;;;;;;5072081;28;20051;-52
2021/07/15 01:23:41;;;;;;;0.40;0.40;;;;;;;;;;5073299;28;20108;-52
2021/07/15 01:26:19;;;;;;;0.30;0.30;;;;;;;;;;5073277;28;20036;-51
2021/07/15 01:28:51;;;;;;;0.30;0.30;;;;;;;;;;5073217;28;20082;-51
2021/07/15 01:31:18;;;;;;;0.30;0.30;;;;;;;;;;5071842;28;20363;-52
2021/07/15 01:33:46;;;;;;;0.20;0.20;;;;;;;;;;5073358;28;20070;-52
2021/07/15 01:36:13;;;;;;;2.60;0.43;;;;;;;;;;5072700;28;20065;-51
2021/07/15 01:38:44;;;;;;;0.30;0.30;;;;;;;;;;5073287;28;20025;-51
2021/07/15 01:41:13;;;;;;;0.52;0.30;;;;;;;;;;5072063;28;20025;-52
2021/07/15 01:44:08;;;;;;;0.20;0.20;;;;;;;;;;5052989;28;20017;-52
2021/07/15 01:46:34;;;;;;;0.30;0.30;;;;;;;;;;4971750;28;20051;-51
2021/07/15 01:49:01;;;;;;;0.30;0.30;;;;;;;;;;4971936;28;20029;-51
2021/07/15 01:51:27;;;;;;;0.20;0.20;;;;;;;;;;4970745;28;20038;-51
2021/07/15 01:53:53;;;;;;;0.22;0.22;;;;;;;;;;4971923;28;20070;-52
2021/07/15 01:56:20;;;;;;;0.20;0.20;;;;;;;;;;4971227;28;20054;-52
2021/07/15 01:58:47;;;;;;;0.30;0.30;;;;;;;;;;4971749;28;20117;-51
2021/07/15 02:01:14;;;;;;;0.30;0.30;;;;;;;;;;4970881;28;20030;-51
2021/07/15 02:03:46;;;;;;;0.40;0.40;;;;;;;;;;4971696;28;20066;-52
2021/07/15 02:06:13;;;;;;;0.25;0.25;;;;;;;;;;4971519;28;20451;-52
2021/07/15 02:08:40;;;;;;;0.30;0.30;;;;;;;;;;4971487;28;20034;-51
2021/07/15 02:11:07;;;;;;;0.30;0.30;;;;;;;;;;4970450;28;20186;-51
2021/07/15 02:13:33;;;;;;;0.35;0.35;;;;;;;;;;4971765;28;20029;-52
2021/07/15 02:16:01;;;;;;;0.35;0.35;;;;;;;;;;4971438;28;20051;-52
2021/07/15 02:18:27;;;;;;;0.30;0.30;;;;;;;;;;4971616;28;20023;-52
2021/07/15 02:20:54;;;;;;;0.30;0.30;;;;;;;;;;4970393;28;20261;-52
2021/07/15 02:23:21;;;;;;;0.25;0.25;;;;;;;;;;5029897;28;20060;-52
2021/07/15 02:25:52;;;;;;;0.38;0.30;;;;;;;;;;5072394;28;20028;-52
2021/07/15 02:28:20;;;;;;;1.38;0.40;;;;;;;;;;5074905;28;20343;-52
2021/07/15 02:30:47;;;;;;;0.30;0.30;;;;;;;;;;5076179;28;20743;-52
2021/07/15 02:33:15;;;;;;;0.20;0.20;;;;;;;;;;5076307;28;20333;-51
2021/07/15 02:35:47;;;;;;;0.30;0.30;;;;;;;;;;5076584;28;20124;-51
2021/07/15 02:38:16;;;;;;;0.30;0.30;;;;;;;;;;5076705;28;20028;-52
2021/07/15 02:40:43;;;;;;;2.60;1.23;;;;;;;;;;5075614;28;20024;-52
2021/07/15 02:43:09;;;;;;;0.20;0.20;;;;;;;;;;5075596;28;20024;-52
2021/07/15 02:45:35;;;;;;;0.30;0.30;;;;;;;;;;5076736;28;20127;-52
2021/07/15 02:48:01;;;;;;;0.20;0.20;;;;;;;;;;5076238;28;20028;-52
2021/07/15 02:50:27;;;;;;;0.30;0.30;;;;;;;;;;5075723;28;20082;-51
2021/07/15 02:52:55;;;;;;;2.53;0.30;;;;;;;;;;5075365;28;20032;-51
2021/07/15 02:55:22;;;;;;;0.57;0.30;;;;;;;;;;5076011;28;20031;-51
2021/07/15 02:57:54;;;;;;;0.30;0.30;;;;;;;;;;5075554;28;20185;-52
2021/07/15 03:00:20;;;;;;;0.30;0.30;;;;;;;;;;5076179;28;20063;-51
2021/07/15 03:02:54;;;;;;;0.22;0.22;;;;;;;;;;5074888;28;20447;-51
2021/07/15 03:05:22;;;;;;;0.30;0.30;;;;;;;;;;5076017;28;20340;-52
2021/07/15 03:07:50;;;;;;;0.38;0.38;;;;;;;;;;5075400;28;20028;-51
2021/07/15 03:10:17;;;;;;;0.30;0.30;;;;;;;;;;5076121;28;20020;-51
2021/07/15 03:12:44;;;;;;;0.22;0.22;;;;;;;;;;5074818;28;20048;-51
2021/07/15 03:15:10;;;;;;;0.30;0.30;;;;;;;;;;5075856;28;20059;-51
2021/07/15 03:17:38;;;;;;;0.70;0.30;;;;;;;;;;5075708;28;20021;-51
2021/07/15 03:20:07;;;;;;;0.40;0.40;;;;;;;;;;5075575;28;20040;-51
2021/07/15 03:22:34;;;;;;;2.63;0.32;;;;;;;;;;5074636;28;20107;-51
2021/07/15 03:25:01;;;;;;;0.40;0.40;;;;;;;;;;5075677;28;20575;-51
2021/07/15 03:27:30;;;;;;;0.30;0.30;;;;;;;;;;5075685;28;20020;-52
2021/07/15 03:29:57;;;;;;;0.20;0.20;;;;;;;;;;5075392;28;20403;-51
2021/07/15 03:32:24;;;;;;;0.30;0.30;;;;;;;;;;5074687;28;20604;-51
2021/07/15 03:34:51;;;;;;;0.30;0.30;;;;;;;;;;5075624;28;20044;-51
2021/07/15 03:37:17;;;;;;;0.30;0.30;;;;;;;;;;5075018;28;20043;-51
2021/07/15 03:39:46;;;;;;;0.30;0.30;;;;;;;;;;5074431;28;20505;-51
2021/07/15 03:42:13;;;;;;;1.27;0.40;;;;;;;;;;5074535;28;20107;-51
2021/07/15 03:44:39;;;;;;;0.30;0.30;;;;;;;;;;5075040;28;20017;-52
2021/07/15 03:47:05;;;;;;;0.30;0.30;;;;;;;;;;5075190;28;20025;-51
2021/07/15 03:49:32;;;;;;;0.30;0.30;;;;;;;;;;5075058;28;20020;-51
2021/07/15 03:51:58;;;;;;;1.67;0.88;;;;;;;;;;5074202;28;20020;-52
2021/07/15 03:54:24;;;;;;;0.30;0.30;;;;;;;;;;5074986;28;20032;-52
2021/07/15 03:56:51;;;;;;;0.32;0.30;;;;;;;;;;5074488;28;20036;-52
2021/07/15 03:59:19;;;;;;;1.25;0.40;;;;;;;;;;5074635;28;20452;-52
2021/07/15 04:01:45;;;;;;;0.30;0.30;;;;;;;;;;5073894;28;20367;-51
2021/07/15 04:04:13;;;;;;;0.30;0.30;;;;;;;;;;5074713;28;20021;-51
2021/07/15 04:06:39;;;;;;;0.35;0.35;;;;;;;;;;5075037;28;20036;-51
2021/07/15 04:09:08;;;;;;;0.30;0.30;;;;;;;;;;5074743;28;20450;-52
2021/07/15 04:11:35;;;;;;;1.25;0.43;;;;;;;;;;5074002;28;20048;-51
2021/07/15 04:14:02;;;;;;;0.30;0.30;;;;;;;;;;5074117;28;20020;-52
2021/07/15 04:16:28;;;;;;;0.30;0.30;;;;;;;;;;5074572;28;20090;-51
2021/07/15 04:18:57;;;;;;;4.78;0.45;;;;;;;;;;5074691;28;20024;-52
2021/07/15 04:21:24;;;;;;;0.30;0.30;;;;;;;;;;5073631;28;20039;-51
2021/07/15 04:23:52;;;;;;;0.30;0.30;;;;;;;;;;5073850;28;20024;-51
2021/07/15 04:26:18;;;;;;;0.65;0.63;;;;;;;;;;5074486;28;20024;-51
2021/07/15 04:28:45;;;;;;;0.32;0.32;;;;;;;;;;5074069;28;20426;-52
2021/07/15 04:31:30;;;;;;;0.30;0.30;;;;;;;;;;5070302;28;20342;-51
2021/07/15 04:33:56;;;;;;;4.55;0.52;;;;;;;;;;5067682;28;20025;-51
2021/07/15 04:36:23;;;;;;;3.17;0.38;;;;;;;;;;5073494;28;20090;-51
2021/07/15 04:38:49;;;;;;;0.30;0.30;;;;;;;;;;5073957;28;20016;-51
2021/07/15 04:41:15;;;;;;;3.22;0.35;;;;;;;;;;5070905;28;20021;-51
2021/07/15 04:43:42;;;;;;;0.30;0.30;;;;;;;;;;5073075;28;20028;-51
2021/07/15 04:46:10;;;;;;;0.30;0.30;;;;;;;;;;5073139;28;20028;-51
2021/07/15 04:48:36;;;;;;;0.30;0.30;;;;;;;;;;5073939;28;20036;-51
2021/07/15 04:51:02;;;;;;;0.22;0.22;;;;;;;;;;5071628;28;20021;-52
2021/07/15 04:53:31;;;;;;;0.30;0.30;;;;;;;;;;5073758;28;20382;-51
2021/07/15 04:55:58;;;;;;;0.30;0.30;;;;;;;;;;5072880;28;20155;-52
2021/07/15 04:58:24;;;;;;;0.35;0.35;;;;;;;;;;5073309;28;20032;-51
2021/07/15 05:00:51;;;;;;;0.30;0.30;;;;;;;;;;5072514;28;20024;-51
2021/07/15 05:03:19;;;;;;;0.30;0.30;;;;;;;;;;5067331;28;20071;-51
2021/07/15 05:05:45;;;;;;;0.25;0.25;;;;;;;;;;5053738;28;20349;-51
2021/07/15 05:08:11;;;;;;;3.85;2.05;;;;;;;;;;5053813;28;20036;-51
2021/07/15 05:10:37;;;;;;;0.40;0.40;;;;;;;;;;5063535;28;20024;-52
2021/07/15 05:13:04;;;;;;;0.30;0.30;;;;;;;;;;5073071;28;20033;-51
2021/07/15 05:15:30;;;;;;;0.77;0.38;;;;;;;;;;5064362;28;20103;-51
2021/07/15 05:17:56;;;;;;;0.30;0.30;;;;;;;;;;5062370;28;20024;-51
2021/07/15 05:20:22;;;;;;;0.30;0.30;;;;;;;;;;5064103;28;20081;-51
2021/07/15 05:22:55;;;;;;;0.30;0.30;;;;;;;;;;5110708;27;20400;-51
2021/07/15 05:25:21;;;;;;;0.30;0.30;;;;;;;;;;5110186;28;20039;-51
2021/07/15 05:27:47;;;;;;;0.40;0.40;;;;;;;;;;5110746;28;20051;-49
2021/07/15 05:30:13;;;;;;;0.30;0.30;;;;;;;;;;5110315;28;20052;-50
2021/07/15 05:32:39;;;;;;;0.30;0.30;;;;;;;;;;5109763;28;20445;-50
2021/07/15 05:35:06;;;;;;;0.30;0.30;;;;;;;;;;5109404;28;20030;-50
2021/07/15 05:37:32;;;;;;;0.40;0.40;;;;;;;;;;5109750;28;20026;-49
2021/07/15 05:39:58;;;;;;;0.30;0.30;;;;;;;;;;5109863;28;20382;-49
2021/07/15 05:42:24;;;;;;;0.98;0.40;;;;;;;;;;5109887;28;20453;-50
2021/07/15 05:44:50;;;;;;;0.40;0.40;;;;;;;;;;5109970;28;20028;-50
2021/07/15 05:47:16;;;;;;;0.40;0.40;;;;;;;;;;5110285;28;20027;-50
2021/07/15 05:49:42;;;;;;;0.38;0.38;;;;;;;;;;5110606;28;20027;-50
2021/07/15 05:52:08;;;;;;;11.55;0.63;;;;;;;;;;5109432;28;20024;-50
2021/07/15 05:54:35;;;;;;;3.40;0.57;;;;;;;;;;5109833;28;20103;-50
2021/07/15 05:57:01;;;;;;;0.30;0.30;;;;;;;;;;5110334;28;20035;-50
2021/07/15 05:59:27;;;;;;;0.30;0.30;;;;;;;;;;5110250;28;20020;-50
2021/07/15 06:01:53;;;;;;;0.40;0.40;;;;;;;;;;5109258;28;20039;-50
2021/07/15 06:04:19;;;;;;;1.38;0.50;;;;;;;;;;5110338;28;20106;-50
2021/07/15 06:06:45;;;;;;;2.63;0.43;;;;;;;;;;5109552;28;20054;-50
2021/07/15 06:09:11;;;;;;;2.50;0.70;;;;;;;;;;5109762;28;20035;-50
2021/07/15 06:11:37;;;;;;;0.40;0.40;;;;;;;;;;5109370;28;20019;-50
2021/07/15 06:14:03;;;;;;;2.13;0.50;;;;;;;;;;5109930;28;20019;-50
2021/07/15 06:16:29;;;;;;;1.33;0.40;;;;;;;;;;5109606;28;20084;-50
2021/07/15 06:18:55;;;;;;;5.55;0.90;;;;;;;;;;5109749;28;20028;-50
2021/07/15 06:21:21;;;;;;;0.40;0.40;;;;;;;;;;5108913;28;20027;-50
2021/07/15 06:23:47;;;;;;;2.17;0.50;;;;;;;;;;5109239;28;20452;-49
2021/07/15 06:26:13;;;;;;;0.52;0.52;;;;;;;;;;5109987;28;20031;-50
2021/07/15 06:28:39;;;;;;;0.65;0.60;;;;;;;;;;5109927;28;20031;-50
2021/07/15 06:31:05;;;;;;;0.93;0.68;;;;;;;;;;5108613;28;20069;-50
2021/07/15 06:33:31;;;;;;;0.30;0.30;;;;;;;;;;5100160;28;20032;-50
2021/07/15 06:36:00;;;;;;;0.32;0.32;;;;;;;;;;5096099;28;20445;-50
2021/07/15 06:38:27;;;;;;;0.50;0.50;;;;;;;;;;5093834;28;20028;-50
2021/07/15 06:40:54;;;;;;;4.85;0.60;;;;;;;;;;5094620;28;20157;-50
2021/07/15 06:43:20;;;;;;;0.50;0.40;;;;;;;;;;5095998;28;20024;-50
2021/07/15 06:45:46;;;;;;;0.20;0.20;;;;;;;;;;5095660;28;20085;-50
2021/07/15 06:48:12;;;;;;;0.75;0.45;;;;;;;;;;5095701;28;20027;-50
2021/07/15 06:50:38;;;;;;;0.73;0.55;;;;;;;;;;5094570;28;20470;-50
2021/07/15 06:53:05;;;;;;;0.40;0.40;;;;;;;;;;5095648;28;20024;-50
2021/07/15 06:55:31;;;;;;;0.40;0.40;;;;;;;;;;5095737;28;20032;-50
2021/07/15 06:57:57;;;;;;;0.98;0.43;;;;;;;;;;5095343;28;20024;-50
2021/07/15 07:00:23;;;;;;;0.40;0.40;;;;;;;;;;5095375;28;20043;-50
2021/07/15 07:02:49;;;;;;;0.30;0.30;;;;;;;;;;5094678;28;20024;-49
2021/07/15 07:05:15;;;;;;;0.30;0.30;;;;;;;;;;5095243;28;20081;-50
2021/07/15 07:07:42;;;;;;;0.30;0.30;;;;;;;;;;5094502;28;20031;-50
2021/07/15 07:10:09;;;;;;;0.75;0.52;;;;;;;;;;5083379;28;20025;-50
2021/07/15 07:12:35;;;;;;;0.30;0.30;;;;;;;;;;5076437;28;20072;-50
2021/07/15 07:15:01;;;;;;;0.30;0.30;;;;;;;;;;5087310;28;20101;-50
2021/07/15 07:17:27;;;;;;;0.52;0.40;;;;;;;;;;5094995;28;20027;-50
2021/07/15 07:19:53;;;;;;;0.32;0.32;;;;;;;;;;5077777;28;20063;-50
2021/07/15 07:22:19;;;;;;;0.40;0.40;;;;;;;;;;5073913;28;20052;-50
2021/07/15 07:24:45;;;;;;;0.63;0.40;;;;;;;;;;5074984;28;20365;-50
2021/07/15 07:27:11;;;;;;;0.30;0.30;;;;;;;;;;5074695;28;20036;-50
2021/07/15 07:29:37;;;;;;;0.50;0.50;;;;;;;;;;5074832;28;20029;-50
2021/07/15 07:32:03;;;;;;;0.55;0.55;;;;;;;;;;5073504;28;20576;-50
2021/07/15 07:34:29;;;;;;;0.40;0.40;;;;;;;;;;5074906;28;20024;-50
2021/07/15 07:36:56;;;;;;;0.70;0.30;;;;;;;;;;5074086;28;20027;-50
2021/07/15 07:39:22;;;;;;;3.20;0.40;;;;;;;;;;5074416;28;20039;-50
2021/07/15 07:41:48;;;;;;;1.73;0.40;;;;;;;;;;5073684;28;20059;-50
2021/07/15 07:44:18;;;;;;;0.80;0.60;;;;;;;;;;5073268;28;20020;-50
2021/07/15 07:46:44;;;;;;;1.17;0.50;;;;;;;;;;5074008;28;20353;-50
2021/07/15 07:49:10;;;;;;;0.40;0.40;;;;;;;;;;5073870;28;20103;-50
2021/07/15 07:51:36;;;;;;;0.80;0.55;;;;;;;;;;5091585;28;20107;-50
2021/07/15 07:54:04;;;;;;;1.38;0.45;;;;;;;;;;5094551;28;20026;-50
2021/07/15 07:56:32;;;;;;;0.40;0.40;;;;;;;;;;5094129;28;20020;-50
2021/07/15 07:58:58;;;;;;;0.57;0.57;;;;;;;;;;5093805;28;20030;-50
2021/07/15 08:01:24;;;;;;;0.40;0.40;;;;;;;;;;5088129;28;20350;-50
2021/07/15 08:03:50;;;;;;;1.75;0.40;;;;;;;;;;5093854;28;20031;-50
2021/07/15 08:06:16;;;;;;;0.60;0.60;;;;;;;;;;5093360;28;20024;-50
2021/07/15 08:08:43;;;;;;;0.50;0.50;;;;;;;;;;5093469;28;20028;-50
2021/07/15 08:11:09;;;;;;;0.47;0.47;;;;;;;;;;5093044;28;20031;-50
2021/07/15 08:13:35;;;;;;;0.40;0.40;;;;;;;;;;5093323;28;20024;-50
2021/07/15 08:16:01;;;;;;;0.60;0.60;;;;;;;;;;5093939;28;20024;-50
2021/07/15 08:18:27;;;;;;;0.45;0.45;;;;;;;;;;5093117;28;20035;-50
2021/07/15 08:20:53;;;;;;;0.60;0.60;;;;;;;;;;5092364;28;20020;-50
2021/07/15 08:23:19;;;;;;;0.68;0.68;;;;;;;;;;5093020;28;20036;-50
2021/07/15 08:25:45;;;;;;;0.40;0.40;;;;;;;;;;5093384;28;20032;-50
2021/07/15 08:28:12;;;;;;;0.82;0.70;;;;;;;;;;5093261;28;20464;-50
2021/07/15 08:30:38;;;;;;;1.52;0.95;;;;;;;;;;5092241;28;20024;-50
2021/07/15 08:33:04;;;;;;;0.63;0.57;;;;;;;;;;5093559;28;20024;-50
2021/07/15 08:35:31;;;;;;;0.60;0.60;;;;;;;;;;5093815;28;20099;-50
2021/07/15 08:37:58;;;;;;;0.90;0.63;;;;;;;;;;5092909;28;20032;-50
2021/07/15 08:40:24;;;;;;;0.70;0.68;;;;;;;;;;5093382;28;20318;-50
2021/07/15 08:42:50;;;;;;;1.52;0.70;;;;;;;;;;5092207;28;20127;-50
2021/07/15 08:45:16;;;;;;;1.88;0.88;;;;;;;;;;5093745;28;20024;-50
2021/07/15 08:47:43;;;;;;;0.63;0.63;;;;;;;;;;5093249;28;20020;-50
2021/07/15 08:50:10;;;;;;;0.68;0.68;;;;;;;;;;5093076;28;20020;-55
2021/07/15 08:52:36;;;;;;;0.70;0.70;;;;;;;;;;5092300;28;20077;-50
2021/07/15 08:57:36;;;;;;;0.93;0.90;;;;;;;;;;5092711;28;20361;-50
2021/07/15 09:00:04;;;;;;;2.13;1.17;;;;;;;;;;5092807;28;20109;-50
2021/07/15 09:02:30;;;;;;;1.65;1.25;;;;;;;;;;5092366;28;20036;-50
2021/07/15 09:04:56;;;;;;;1.55;1.08;;;;;;;;;;5093606;28;20088;-50
2021/07/15 09:07:23;;;;;;;1.17;1.10;;;;;;;;;;5092916;28;20507;-50
2021/07/15 09:09:49;;;;;;;2.05;1.25;;;;;;;;;;5092295;28;20035;-49
2021/07/15 09:12:16;;;;;;;1.58;1.38;;;;;;;;;;5091474;28;20107;-50
2021/07/15 09:14:43;;;;;;;6.07;1.50;;;;;;;;;;5092785;28;20012;-49
2021/07/15 09:17:09;;;;;;;1.70;1.30;;;;;;;;;;5092774;28;20117;-50
2021/07/15 09:19:38;;;;;;;2.13;1.65;;;;;;;;;;5092781;28;20035;-50
2021/07/15 09:22:11;;;;;;;2.30;1.33;;;;;;;;;;5091784;28;20063;-49
2021/07/15 09:24:39;;;;;;;1.45;1.30;;;;;;;;;;5092487;28;20042;-50
2021/07/15 09:27:11;;;;;;;1.38;1.23;;;;;;;;;;5093010;28;20028;-50
2021/07/15 09:29:37;;;;;;;1.27;1.17;;;;;;;;;;5093019;28;20065;-50
2021/07/15 09:32:03;;;;;;;1.27;1.05;;;;;;;;;;5091362;28;20020;-50
2021/07/15 09:34:30;;;;;;;1.35;1.25;;;;;;;;;;5092970;28;20020;-50
2021/07/15 09:36:57;;;;;;;0.80;0.80;;;;;;;;;;5092354;28;20706;-50
2021/07/15 09:39:27;;;;;;;4.78;1.20;;;;;;;;;;5092108;28;20027;-50
2021/07/15 09:42:05;;;;;;;4.32;1.00;;;;;;;;;;5091431;28;20024;-50
2021/07/15 09:44:31;;;;;;;0.70;0.70;;;;;;;;;;5092010;28;20035;-50
2021/07/15 09:46:57;;;;;;;1.08;0.95;;;;;;;;;;5091812;28;20024;-51
2021/07/15 09:49:30;;;;;;;0.80;0.80;;;;;;;;;;5092221;28;20248;-50
2021/07/15 09:51:58;;;;;;;1.02;0.90;;;;;;;;;;5091632;28;20056;-50
2021/07/15 09:54:24;;;;;;;0.90;0.90;;;;;;;;;;5091281;28;20531;-50
2021/07/15 09:56:50;;;;;;;0.93;0.82;;;;;;;;;;5092187;28;20446;-50
2021/07/15 09:59:16;;;;;;;0.60;0.60;;;;;;;;;;5092370;28;20027;-50
2021/07/15 10:01:46;;;;;;;0.90;0.90;;;;;;;;;;5091818;28;20032;-50
2021/07/15 10:04:12;;;;;;;0.88;0.85;;;;;;;;;;5092358;28;20020;-50
2021/07/15 10:06:45;;;;;;;1.20;0.82;;;;;;;;;;5092629;28;20107;-50
2021/07/15 10:09:27;;;;;;;2.03;0.85;;;;;;;;;;5094945;28;20016;-50
2021/07/15 10:11:56;;;;;;;0.68;0.68;;;;;;;;;;5095493;28;20051;-50
2021/07/15 10:14:41;;;;;;;0.60;0.60;;;;;;;;;;5095253;28;20026;-50
2021/07/15 10:17:08;;;;;;;0.90;0.90;;;;;;;;;;5096065;28;20032;-50
2021/07/15 10:19:34;;;;;;;0.60;0.60;;;;;;;;;;5096061;28;20065;-50
2021/07/15 10:22:02;;;;;;;1.15;1.05;;;;;;;;;;5094370;28;20039;-49
2021/07/15 10:24:29;;;;;;;0.70;0.70;;;;;;;;;;5096332;28;20028;-49
2021/07/15 10:27:05;;;;;;;1.42;0.75;;;;;;;;;;5095654;28;20024;-50
2021/07/15 10:29:31;;;;;;;1.60;0.70;;;;;;;;;;5096032;28;20026;-50
2021/07/15 10:31:57;;;;;;;0.70;0.70;;;;;;;;;;5094732;28;20460;-50
2021/07/15 10:34:25;;;;;;;0.70;0.70;;;;;;;;;;5095276;28;20081;-50
2021/07/15 10:36:54;;;;;;;0.73;0.70;;;;;;;;;;5094810;28;20449;-50
2021/07/15 10:39:23;;;;;;;1.33;0.88;;;;;;;;;;5094578;28;20327;-50
2021/07/15 10:41:50;;;;;;;0.60;0.60;;;;;;;;;;5095216;28;20472;-50
2021/07/15 10:44:17;;;;;;;0.45;0.45;;;;;;;;;;5095647;28;20108;-50
2021/07/15 10:46:43;;;;;;;0.40;0.40;;;;;;;;;;5095920;28;20039;-50
2021/07/15 10:49:09;;;;;;;0.50;0.50;;;;;;;;;;5095481;28;20028;-50
2021/07/15 10:51:39;;;;;;;0.50;0.50;;;;;;;;;;5095269;28;20020;-49
2021/07/15 10:54:05;;;;;;;1.65;0.60;;;;;;;;;;5095006;28;20020;-50
2021/07/15 10:56:32;;;;;;;0.98;0.80;;;;;;;;;;5095684;28;20042;-49
2021/07/15 10:58:58;;;;;;;0.63;0.63;;;;;;;;;;5095430;28;20032;-50
2021/07/15 11:04:11;;;;;;;0.98;0.80;;;;;;;;;;5095466;28;20489;-50
2021/07/15 11:06:44;;;;;;;0.65;0.65;;;;;;;;;;5095232;28;20428;-49
2021/07/15 11:09:12;;;;;;;0.47;0.47;;;;;;;;;;5095071;28;20959;-49
2021/07/15 11:11:40;;;;;;;0.98;0.60;;;;;;;;;;5091235;28;20381;-50
2021/07/15 11:14:06;;;;;;;1.55;0.52;;;;;;;;;;5095169;28;20016;-50
2021/07/15 11:16:51;;;;;;;0.30;0.30;;;;;;;;;;5094640;28;20020;-50
2021/07/15 11:19:35;;;;;;;0.60;0.60;;;;;;;;;;5094637;28;20039;-50
2021/07/15 11:22:02;;;;;;;1.17;0.60;;;;;;;;;;5094011;28;20469;-49
2021/07/15 11:24:28;;;;;;;1.73;0.52;;;;;;;;;;5094863;28;20035;-50
2021/07/15 11:26:54;;;;;;;0.30;0.30;;;;;;;;;;5095017;28;20392;-50
2021/07/15 11:29:40;;;;;;;0.40;0.40;;;;;;;;;;5094196;28;20436;-50
2021/07/15 11:32:23;;;;;;;0.70;0.60;;;;;;;;;;5093984;28;20073;-50
2021/07/15 11:34:53;;;;;;;0.40;0.40;;;;;;;;;;5094861;28;20082;-50
2021/07/15 11:37:32;;;;;;;3.13;0.70;;;;;;;;;;5094600;28;20081;-50
2021/07/15 11:39:59;;;;;;;0.30;0.30;;;;;;;;;;5094691;28;20107;-50
2021/07/15 11:42:26;;;;;;;0.40;0.40;;;;;;;;;;5093757;28;20040;-50
2021/07/15 11:44:59;;;;;;;0.40;0.40;;;;;;;;;;5094592;28;20020;-50
2021/07/15 11:47:44;;;;;;;0.47;0.47;;;;;;;;;;5094978;28;20050;-50
2021/07/15 11:50:28;;;;;;;0.45;0.45;;;;;;;;;;5093755;28;20020;-50
2021/07/15 11:53:13;;;;;;;0.60;0.60;;;;;;;;;;5093633;28;20472;-50
2021/07/15 11:55:39;;;;;;;0.60;0.60;;;;;;;;;;5094353;28;20383;-50
2021/07/15 11:58:05;;;;;;;0.70;0.68;;;;;;;;;;5094268;28;20396;-49
2021/07/15 12:00:31;;;;;;;0.50;0.50;;;;;;;;;;5093749;28;20404;-50
2021/07/15 12:02:58;;;;;;;0.73;0.68;;;;;;;;;;5094166;28;20036;-49
2021/07/15 12:05:31;;;;;;;0.70;0.70;;;;;;;;;;5094276;28;20024;-50
2021/07/15 12:08:08;;;;;;;0.50;0.50;;;;;;;;;;5094237;28;20025;-50
2021/07/15 12:10:38;;;;;;;0.73;0.73;;;;;;;;;;5093246;28;20078;-50
2021/07/15 12:13:06;;;;;;;0.55;0.55;;;;;;;;;;5093899;28;20382;-50
2021/07/15 12:15:33;;;;;;;0.50;0.50;;;;;;;;;;5093957;28;20032;-50
2021/07/15 12:18:00;;;;;;;0.77;0.70;;;;;;;;;;5093636;28;20039;-50
2021/07/15 12:20:35;;;;;;;1.08;0.98;;;;;;;;;;5094035;28;20048;-49
2021/07/15 12:23:01;;;;;;;1.02;0.90;;;;;;;;;;5093108;28;20122;-49
2021/07/15 12:25:32;;;;;;;0.80;0.80;;;;;;;;;;5093751;28;20110;-49
2021/07/15 12:28:00;;;;;;;1.10;1.00;;;;;;;;;;5093717;28;20103;-50
2021/07/15 12:30:38;;;;;;;0.60;0.60;;;;;;;;;;5093118;28;20457;-50
2021/07/15 12:33:04;;;;;;;0.73;0.73;;;;;;;;;;5093043;28;20032;-49
2021/07/15 12:35:32;;;;;;;0.60;0.60;;;;;;;;;;5093981;28;20349;-50
2021/07/15 12:37:58;;;;;;;0.60;0.60;;;;;;;;;;5093548;28;20028;-50
2021/07/15 12:40:29;;;;;;;1.00;0.70;;;;;;;;;;5091584;28;20027;-50
2021/07/15 12:43:10;;;;;;;2.10;1.10;;;;;;;;;;5092791;28;20119;-49
2021/07/15 12:45:36;;;;;;;1.38;0.60;;;;;;;;;;5092665;28;20032;-50
2021/07/15 12:48:04;;;;;;;0.70;0.70;;;;;;;;;;5093531;28;20028;-50
2021/07/15 12:50:30;;;;;;;0.70;0.70;;;;;;;;;;5092925;28;20099;-50
2021/07/15 12:53:13;;;;;;;0.85;0.85;;;;;;;;;;5093594;28;20108;-50
2021/07/15 12:55:40;;;;;;;0.85;0.75;;;;;;;;;;5093096;28;20050;-50
2021/07/15 12:58:06;;;;;;;1.00;0.90;;;;;;;;;;5091985;28;20422;-50
2021/07/15 13:00:36;;;;;;;1.30;0.90;;;;;;;;;;5092996;28;20027;-50
2021/07/15 13:03:03;;;;;;;1.08;0.80;;;;;;;;;;5093265;28;20334;-50
2021/07/15 13:05:29;;;;;;;1.20;1.10;;;;;;;;;;5092791;28;20043;-50
2021/07/15 13:07:55;;;;;;;1.38;1.00;;;;;;;;;;5093442;28;20032;-50
2021/07/15 13:15:42;;;;;;;1.00;0.90;;;;;;;;;;5093521;28;20097;-49
2021/07/15 13:18:09;;;;;;;0.77;0.77;;;;;;;;;;5093047;28;20026;-50
2021/07/15 13:20:41;;;;;;;1.27;0.90;;;;;;;;;;5091774;28;20449;-50
2021/07/15 13:23:07;;;;;;;0.68;0.68;;;;;;;;;;5092931;28;20043;-50
2021/07/15 13:25:33;;;;;;;1.00;0.95;;;;;;;;;;5092955;28;20350;-50
2021/07/15 13:28:07;;;;;;;1.20;1.10;;;;;;;;;;5092033;28;20112;-50
2021/07/15 13:30:33;;;;;;;1.00;0.90;;;;;;;;;;5092463;28;20067;-50
2021/07/15 13:33:08;;;;;;;0.90;0.90;;;;;;;;;;5093030;28;20039;-50
2021/07/15 13:35:36;;;;;;;1.08;0.90;;;;;;;;;;5092765;28;20070;-50
2021/07/15 13:38:03;;;;;;;4.50;1.30;;;;;;;;;;5092809;28;20074;-50
2021/07/15 13:40:33;;;;;;;8.30;1.02;;;;;;;;;;5092145;28;20021;-50
2021/07/15 13:43:06;;;;;;;2.92;0.98;;;;;;;;;;5093791;28;20089;-50
2021/07/15 13:45:32;;;;;;;0.68;0.68;;;;;;;;;;5097138;28;20039;-50
2021/07/15 13:47:58;;;;;;;0.70;0.70;;;;;;;;;;5096810;28;20024;-50
2021/07/15 13:50:25;;;;;;;0.98;0.88;;;;;;;;;;5096397;28;20038;-50
2021/07/15 13:52:53;;;;;;;0.65;0.60;;;;;;;;;;5095885;28;20016;-50
2021/07/15 13:55:19;;;;;;;0.77;0.77;;;;;;;;;;5096804;28;20051;-50
2021/07/15 13:57:50;;;;;;;0.73;0.65;;;;;;;;;;5096520;28;20062;-50
2021/07/15 14:00:17;;;;;;;1.27;0.75;;;;;;;;;;5096628;28;20052;-50
2021/07/15 14:02:45;;;;;;;4.85;0.93;;;;;;;;;;5095464;28;20112;-50
2021/07/15 14:05:11;;;;;;;0.77;0.77;;;;;;;;;;5096898;28;20361;-49
2021/07/15 14:07:37;;;;;;;0.88;0.80;;;;;;;;;;5096017;28;20085;-49
2021/07/15 14:10:11;;;;;;;0.70;0.70;;;;;;;;;;5096657;28;20022;-49
2021/07/15 14:12:38;;;;;;;0.85;0.70;;;;;;;;;;5094696;28;20058;-49
2021/07/15 14:15:05;;;;;;;1.00;0.90;;;;;;;;;;5096302;28;20250;-50
2021/07/15 14:17:31;;;;;;;0.70;0.70;;;;;;;;;;5086599;28;20076;-49
2021/07/15 14:19:57;;;;;;;0.85;0.82;;;;;;;;;;5094280;28;20031;-50
2021/07/15 14:22:23;;;;;;;1.95;0.88;;;;;;;;;;5094582;28;20039;-49
2021/07/15 14:24:50;;;;;;;3.67;1.00;;;;;;;;;;5095513;28;20012;-49
2021/07/15 14:27:17;;;;;;;1.35;0.80;;;;;;;;;;5095049;28;20395;-49
2021/07/15 14:29:43;;;;;;;0.52;0.52;;;;;;;;;;5095522;28;20389;-50
2021/07/15 14:32:10;;;;;;;1.00;0.80;;;;;;;;;;5094577;28;20024;-50
2021/07/15 14:34:36;;;;;;;2.22;0.80;;;;;;;;;;5095337;28;20107;-50
2021/07/15 14:37:02;;;;;;;1.02;1.02;;;;;;;;;;5094781;28;20050;-50
2021/07/15 14:39:28;;;;;;;1.45;0.90;;;;;;;;;;5095902;28;20016;-50
2021/07/15 14:41:54;;;;;;;1.15;1.10;;;;;;;;;;5093644;28;20077;-50
2021/07/15 14:44:20;;;;;;;1.20;0.88;;;;;;;;;;5095718;28;20031;-50
2021/07/15 14:46:46;;;;;;;1.00;0.88;;;;;;;;;;5094989;28;20028;-50
2021/07/15 14:49:12;;;;;;;0.93;0.70;;;;;;;;;;5094808;28;20023;-50
2021/07/15 14:51:38;;;;;;;1.48;1.00;;;;;;;;;;5094601;28;20778;-49
2021/07/15 14:54:04;;;;;;;1.15;1.05;;;;;;;;;;5094904;28;20040;-49
2021/07/15 14:56:30;;;;;;;0.50;0.50;;;;;;;;;;5094963;28;20027;-49
2021/07/15 14:58:56;;;;;;;2.05;0.88;;;;;;;;;;5094794;28;20021;-49